Time;durP1;ratioP1;P1;durP2;ratioP2;P2;SDS_P1;SDS_P2;PMS_P1;PMS_P2;Temp;Humidity;BMP_temperature;BMP_pressure;BME280_temperature;BME280_humidity;BME280_pressure;Samples;Min_cycle;Max_cycle;Signal;HPM_P1;HPM_P2
2021/12/09 00:01:51;;;;;;;22.50;15.07;;;;;;;2.55;82.81;97484.53;6193136;23;20008;-87
2021/12/09 00:04:26;;;;;;;19.73;14.35;;;;;;;2.55;82.68;97484.53;6193236;23;20036;-86
2021/12/09 00:06:54;;;;;;;21.23;14.15;;;;;;;2.37;82.79;97466.22;6216769;23;20038;-86
2021/12/09 00:09:19;;;;;;;22.48;14.10;;;;;;;2.54;82.65;97488.19;6220104;23;20060;-86
2021/12/09 00:11:47;;;;;;;20.02;14.73;;;;;;;2.56;82.90;97492.19;6242283;23;20004;-89
2021/12/09 00:14:24;;;;;;;19.88;13.52;;;;;;;2.37;82.78;97468.84;6247334;23;20066;-89
2021/12/09 00:16:52;;;;;;;19.58;13.98;;;;;;;2.56;82.71;97500.09;6220716;23;20352;-90
2021/12/09 00:19:18;;;;;;;17.40;12.70;;;;;;;2.56;82.83;97496.66;6245962;23;20033;-89
2021/12/09 00:21:44;;;;;;;18.10;13.65;;;;;;;2.56;82.65;97492.19;6171374;23;20008;-88
2021/12/09 00:24:09;;;;;;;17.67;13.13;;;;;;;2.53;83.01;97489.22;6170637;23;20016;-88
2021/12/09 00:26:35;;;;;;;18.13;12.98;;;;;;;2.59;82.84;97509.38;6220247;23;20091;-88
2021/12/09 00:29:02;;;;;;;24.90;15.15;;;;;;;2.49;82.97;97482.84;6220142;23;20421;-87
2021/12/09 00:31:28;;;;;;;19.20;13.00;;;;;;;2.47;82.56;97475.13;6220162;23;20446;-87
2021/12/09 00:33:55;;;;;;;15.27;12.32;;;;;;;2.45;82.77;97465.88;6220184;23;20036;-87
2021/12/09 00:36:32;;;;;;;22.08;13.85;;;;;;;2.48;82.84;97491.75;6245713;23;20008;-87
2021/12/09 00:38:59;;;;;;;19.60;14.38;;;;;;;2.41;83.05;97476.06;6196662;23;20028;-86
2021/12/09 00:41:25;;;;;;;19.20;13.70;;;;;;;2.51;83.04;97493.94;6244702;23;20442;-86
2021/12/09 00:43:51;;;;;;;22.08;14.52;;;;;;;2.50;82.94;97493.13;6194388;23;20039;-86
2021/12/09 00:46:16;;;;;;;19.88;14.80;;;;;;;2.50;83.07;97487.06;6219391;23;20088;-87
2021/12/09 00:48:42;;;;;;;19.48;13.95;;;;;;;2.60;82.53;97501.22;6219414;23;20032;-87
2021/12/09 00:51:08;;;;;;;22.08;14.52;;;;;;;2.58;82.64;97500.66;6246504;23;20423;-86
2021/12/09 00:53:35;;;;;;;22.52;14.15;;;;;;;2.57;82.67;97504.34;6194869;23;20004;-86
2021/12/09 00:56:01;;;;;;;22.67;14.32;;;;;;;2.58;83.05;97511.19;6194553;23;20423;-87
2021/12/09 00:58:28;;;;;;;18.83;14.07;;;;;;;2.54;82.79;97493.44;6219562;23;20011;-86
2021/12/09 01:00:53;;;;;;;19.85;15.05;;;;;;;2.46;82.66;97494.63;6246437;23;20004;-87
2021/12/09 01:03:19;;;;;;;21.98;15.90;;;;;;;2.24;82.71;97456.75;6219465;23;20008;-87
2021/12/09 01:05:51;;;;;;;21.52;14.52;;;;;;;1.86;82.83;97395.88;6195149;23;20004;-87
2021/12/09 01:08:17;;;;;;;20.65;15.38;;;;;;;2.58;82.98;97510.41;6220578;23;20008;-86
2021/12/09 01:10:42;;;;;;;22.20;14.18;;;;;;;2.58;82.69;97502.53;6220068;23;20091;-87
2021/12/09 01:13:10;;;;;;;21.50;14.23;;;;;;;2.45;83.18;97471.13;6195141;23;20347;-86
2021/12/09 01:15:36;;;;;;;21.23;14.88;;;;;;;2.58;82.61;97503.31;6219993;23;20018;-87
2021/12/09 01:18:02;;;;;;;20.90;14.68;;;;;;;2.57;82.83;97504.34;6195137;23;20008;-86
2021/12/09 01:20:29;;;;;;;22.02;14.93;;;;;;;2.40;82.65;97477.13;6194679;23;20004;-87
2021/12/09 01:22:56;;;;;;;25.42;15.23;;;;;;;2.03;82.81;97407.31;6219925;23;20095;-87
2021/12/09 01:25:24;;;;;;;21.15;14.35;;;;;;;2.59;82.58;97496.22;6246573;23;20011;-88
2021/12/09 01:27:53;;;;;;;19.80;14.27;;;;;;;2.10;82.69;97419.31;6220520;23;20004;-87
2021/12/09 01:30:22;;;;;;;22.80;15.13;;;;;;;2.46;82.73;97470.13;6220792;23;20010;-87
2021/12/09 01:32:54;;;;;;;22.77;14.90;;;;;;;2.54;82.80;97483.72;6195035;23;20343;-87
2021/12/09 01:35:27;;;;;;;17.73;13.90;;;;;;;2.55;82.53;97487.16;6195385;23;20007;-86
2021/12/09 01:37:56;;;;;;;22.10;14.63;;;;;;;2.48;82.26;97479.38;6219898;23;20004;-86
2021/12/09 01:40:24;;;;;;;22.02;14.75;;;;;;;2.56;82.45;97497.47;6221393;23;19997;-86
2021/12/09 01:42:50;;;;;;;18.48;13.20;;;;;;;2.56;82.72;97500.09;6219719;23;20378;-86
2021/12/09 01:45:15;;;;;;;21.85;13.70;;;;;;;2.55;82.63;97495.88;6220221;23;20154;-84
2021/12/09 01:47:41;;;;;;;20.17;13.73;;;;;;;2.33;82.32;97472.97;6244048;23;20008;-88
2021/12/09 01:50:09;;;;;;;20.90;13.88;;;;;;;2.52;82.61;97500.78;6244054;23;20087;-88
2021/12/09 01:52:34;;;;;;;19.15;14.43;;;;;;;2.38;82.71;97494.16;6218998;23;20008;-87
2021/12/09 01:55:00;;;;;;;23.70;15.10;;;;;;;2.41;82.62;97497.13;6192790;23;20111;-87
2021/12/09 01:57:25;;;;;;;21.48;14.65;;;;;;;2.32;82.71;97498.50;6243389;23;20007;-86
2021/12/09 01:59:51;;;;;;;22.13;14.45;;;;;;;1.85;82.24;97421.38;6243967;23;20004;-87
2021/12/09 02:02:16;;;;;;;20.92;14.40;;;;;;;2.49;82.42;97520.47;6193856;23;20070;-87
2021/12/09 02:04:43;;;;;;;21.58;13.77;;;;;;;2.50;82.36;97529.19;6219231;23;20411;-88
2021/12/09 02:07:08;;;;;;;17.63;13.45;;;;;;;2.38;82.25;97509.97;6219415;23;20004;-87
2021/12/09 02:09:35;;;;;;;18.75;14.70;;;;;;;2.51;82.43;97530.78;6244336;23;20010;-88
2021/12/09 02:12:03;;;;;;;19.60;13.18;;;;;;;2.50;82.24;97535.25;6243803;23;20062;-86
2021/12/09 02:14:29;;;;;;;21.70;13.95;;;;;;;2.50;82.80;97532.63;6193388;23;20434;-86
2021/12/09 02:16:55;;;;;;;23.33;15.98;;;;;;;2.32;82.71;97503.75;6219004;23;20004;-86
2021/12/09 02:19:20;;;;;;;20.90;15.10;;;;;;;2.41;82.73;97515.56;6193828;23;20061;-86
2021/12/09 02:21:48;;;;;;;19.70;14.48;;;;;;;2.50;82.71;97540.53;6169520;23;20018;-86
2021/12/09 02:24:16;;;;;;;20.83;15.82;;;;;;;2.50;82.78;97540.53;6219380;23;20062;-87
2021/12/09 02:26:46;;;;;;;22.17;14.90;;;;;;;2.51;82.82;97550.00;6244335;23;20485;-87
2021/12/09 02:29:14;;;;;;;19.85;13.80;;;;;;;2.12;82.85;97476.97;6244407;23;20004;-86
2021/12/09 02:31:41;;;;;;;20.08;14.40;;;;;;;2.51;82.42;97544.75;6194932;23;20439;-86
2021/12/09 02:34:27;;;;;;;20.05;13.70;;;;;;;2.50;82.67;97535.25;6223075;23;20016;-85
2021/12/09 02:36:52;;;;;;;;;;;;;;;2.49;82.59;97525.75;6246566;23;20004;-85
2021/12/09 02:39:19;;;;;;;20.33;15.47;;;;;;;2.11;82.85;97467.50;6219315;23;19937;-85
2021/12/09 02:41:47;;;;;;;20.85;14.10;;;;;;;1.97;82.75;97440.59;6245502;23;20564;-88
2021/12/09 02:44:17;;;;;;;22.67;15.00;;;;;;;2.44;83.19;97525.66;6198059;23;20073;-88
2021/12/09 02:46:43;;;;;;;21.25;14.63;;;;;;;2.38;82.67;97507.34;6246976;23;20014;-88
2021/12/09 02:49:17;;;;;;;18.25;13.82;;;;;;;1.65;82.45;97414.84;6244495;23;20079;-88
2021/12/09 02:51:45;;;;;;;20.92;13.95;;;;;;;2.50;82.71;97524.72;6194739;23;20091;-88
2021/12/09 02:54:14;;;;;;;18.98;13.15;;;;;;;2.50;83.02;97534.44;6244555;23;20008;-88
2021/12/09 02:56:43;;;;;;;20.88;13.80;;;;;;;2.02;82.92;97453.88;6245215;23;20061;-87
2021/12/09 02:59:09;;;;;;;22.40;14.25;;;;;;;1.85;82.53;97426.66;6218167;23;20466;-85
2021/12/09 03:01:38;;;;;;;19.67;15.55;;;;;;;1.88;82.94;97433.28;6244978;23;20004;-85
2021/12/09 03:04:05;;;;;;;20.50;14.10;;;;;;;2.44;82.76;97520.38;6193253;23;20435;-85
2021/12/09 03:06:34;;;;;;;21.45;14.75;;;;;;;2.51;83.02;97536.84;6242768;23;20004;-85
2021/12/09 03:09:09;;;;;;;21.85;14.82;;;;;;;2.51;82.82;97534.22;6219515;23;20027;-88
2021/12/09 03:11:34;;;;;;;20.92;13.88;;;;;;;2.45;82.60;97515.91;6220754;23;20067;-88
2021/12/09 03:14:01;;;;;;;17.73;14.05;;;;;;;1.42;82.97;97350.69;6193818;23;20042;-86
2021/12/09 03:16:27;;;;;;;26.67;14.75;;;;;;;2.19;82.78;97478.47;6194643;23;20050;-86
2021/12/09 03:18:56;;;;;;;20.95;14.05;;;;;;;2.53;82.95;97528.75;6247227;23;20004;-83
2021/12/09 03:21:30;;;;;;;20.02;14.25;;;;;;;2.53;82.81;97534.00;6201268;23;20011;-82
2021/12/09 03:23:58;;;;;;;26.88;14.40;;;;;;;2.54;82.72;97525.06;6200927;23;20070;-84
2021/12/09 03:26:42;;;;;;;21.42;14.60;;;;;;;2.47;83.09;97516.50;6199318;23;20019;-85
2021/12/09 03:29:11;;;;;;;21.48;15.35;;;;;;;2.54;82.87;97520.59;6223056;23;20059;-84
2021/12/09 03:31:38;;;;;;;22.58;14.60;;;;;;;2.55;82.98;97532.75;6197519;23;20351;-84
2021/12/09 03:34:04;;;;;;;23.25;16.35;;;;;;;2.54;82.81;97525.06;6197390;23;20095;-84
2021/12/09 03:36:30;;;;;;;17.33;13.93;;;;;;;2.40;83.04;97508.72;6222187;23;20482;-85
2021/12/09 03:39:00;;;;;;;25.33;14.55;;;;;;;2.53;82.99;97524.28;6197246;23;20008;-85
2021/12/09 03:41:26;;;;;;;21.77;13.88;;;;;;;2.44;83.16;97504.59;6222423;23;20346;-84
2021/12/09 03:43:52;;;;;;;24.90;15.57;;;;;;;2.38;83.00;97505.47;6222074;23;20036;-84
2021/12/09 03:46:17;;;;;;;21.83;14.43;;;;;;;2.36;82.98;97496.22;6221436;23;20035;-85
2021/12/09 03:48:44;;;;;;;25.63;16.30;;;;;;;2.56;83.04;97528.25;6221029;23;20012;-85
2021/12/09 03:51:11;;;;;;;18.73;13.38;;;;;;;2.55;83.14;97524.84;6249554;23;20007;-85
2021/12/09 03:53:42;;;;;;;22.90;15.48;;;;;;;2.54;82.84;97530.31;6219266;23;20023;-84
2021/12/09 03:56:07;;;;;;;21.75;15.13;;;;;;;1.94;82.74;97446.34;6246353;23;20015;-85
2021/12/09 03:58:34;;;;;;;27.00;16.42;;;;;;;2.33;82.60;97504.56;6194781;23;20004;-85
2021/12/09 04:01:00;;;;;;;22.65;15.70;;;;;;;2.48;82.72;97531.25;6195978;23;20008;-84
2021/12/09 04:03:26;;;;;;;20.88;14.57;;;;;;;2.54;83.00;97546.94;6171441;23;20004;-84
2021/12/09 04:05:51;;;;;;;21.88;16.10;;;;;;;2.55;83.02;97548.56;6194783;23;20012;-87
2021/12/09 04:08:17;;;;;;;22.05;13.90;;;;;;;2.55;82.60;97553.00;6195500;23;20036;-84
2021/12/09 04:10:43;;;;;;;20.80;14.35;;;;;;;2.54;82.79;97559.28;6194342;23;20015;-84
2021/12/09 04:13:09;;;;;;;21.85;14.85;;;;;;;2.41;82.63;97530.56;6220135;23;20016;-89
2021/12/09 04:15:34;;;;;;;25.73;16.27;;;;;;;2.49;82.83;97543.41;6218219;23;20488;-87
2021/12/09 04:18:01;;;;;;;20.70;14.15;;;;;;;2.53;82.33;97552.44;6218586;23;20005;-88
2021/12/09 04:20:27;;;;;;;20.73;14.15;;;;;;;2.43;82.83;97539.81;6168646;23;20011;-87
2021/12/09 04:22:52;;;;;;;23.65;14.65;;;;;;;2.51;82.92;97547.38;6193642;23;20339;-87
2021/12/09 04:25:23;;;;;;;17.88;14.15;;;;;;;2.51;82.73;97541.34;6192767;23;20008;-87
2021/12/09 04:27:51;;;;;;;19.00;13.73;;;;;;;2.23;82.32;97495.41;6243874;23;20000;-87
2021/12/09 04:30:19;;;;;;;20.83;13.82;;;;;;;2.50;82.46;97542.34;6218283;23;20083;-88
2021/12/09 04:32:45;;;;;;;22.65;14.05;;;;;;;2.06;82.80;97473.44;6193309;23;20091;-87
2021/12/09 04:35:12;;;;;;;20.02;15.20;;;;;;;2.38;82.34;97521.28;6217428;23;20092;-87
2021/12/09 04:37:38;;;;;;;20.02;13.60;;;;;;;2.11;82.34;97491.19;6193423;23;20004;-87
2021/12/09 04:40:07;;;;;;;21.60;15.05;;;;;;;1.95;82.67;97466.34;6218454;23;20009;-90
2021/12/09 04:42:33;;;;;;;21.00;15.23;;;;;;;2.47;82.66;97554.13;6217646;23;20018;-86
2021/12/09 04:44:58;;;;;;;21.40;14.57;;;;;;;2.45;82.53;97547.50;6217442;23;20435;-87
2021/12/09 04:47:24;;;;;;;23.83;14.88;;;;;;;2.29;82.15;97525.31;6217304;23;20012;-87
2021/12/09 04:49:49;;;;;;;22.50;16.15;;;;;;;2.44;82.57;97538.81;6243531;23;20000;-87
2021/12/09 04:52:15;;;;;;;17.52;12.40;;;;;;;2.44;82.64;97536.19;6169615;23;20062;-86
2021/12/09 04:54:43;;;;;;;21.13;14.93;;;;;;;2.44;82.55;97538.81;6244630;23;20053;-86
2021/12/09 04:57:11;;;;;;;21.02;14.40;;;;;;;2.23;82.27;97511.19;6218865;23;20447;-89
2021/12/09 04:59:36;;;;;;;25.48;16.08;;;;;;;2.41;82.77;97547.16;6244117;23;20011;-88
2021/12/09 05:02:07;;;;;;;25.40;14.80;;;;;;;2.30;82.43;97529.53;6195206;23;20039;-87
2021/12/09 05:04:32;;;;;;;21.70;15.10;;;;;;;2.42;82.53;97548.78;6198034;23;20004;-87
2021/12/09 05:06:57;;;;;;;19.73;14.45;;;;;;;2.29;82.30;97533.97;6199325;23;20043;-87
2021/12/09 05:09:24;;;;;;;21.90;14.55;;;;;;;2.32;82.23;97545.06;6220254;23;20012;-88
2021/12/09 05:11:50;;;;;;;21.15;15.18;;;;;;;2.43;82.57;97566.16;6220992;23;20031;-88
2021/12/09 05:14:18;;;;;;;23.38;14.73;;;;;;;2.41;82.51;97573.47;6194636;23;20016;-88
2021/12/09 05:16:46;;;;;;;22.23;14.60;;;;;;;2.12;82.71;97521.72;6219983;23;20011;-88
2021/12/09 05:19:11;;;;;;;21.45;13.48;;;;;;;1.98;82.49;97508.00;6195019;23;20008;-87
2021/12/09 05:21:39;;;;;;;22.10;13.85;;;;;;;2.39;82.62;97578.19;6220049;23;20008;-88
2021/12/09 05:24:13;;;;;;;24.20;14.52;;;;;;;1.91;82.59;97501.22;6221571;23;20014;-88
2021/12/09 05:26:49;;;;;;;23.17;14.73;;;;;;;2.25;82.84;97563.63;6220264;23;20011;-89
2021/12/09 05:29:27;;;;;;;23.50;15.80;;;;;;;2.22;82.67;97537.75;6247037;23;20030;-87
2021/12/09 05:32:07;;;;;;;22.38;15.02;;;;;;;2.08;82.30;97513.47;6196716;23;20026;-87
2021/12/09 05:34:41;;;;;;;19.70;14.05;;;;;;;2.39;82.72;97551.03;6244934;23;20065;-88
2021/12/09 05:37:14;;;;;;;19.98;14.38;;;;;;;2.39;82.55;97554.47;6219268;23;20016;-86
2021/12/09 05:39:40;;;;;;;21.92;13.77;;;;;;;2.39;82.64;97559.75;6194411;23;20008;-88
2021/12/09 05:42:07;;;;;;;18.85;13.95;;;;;;;2.19;82.56;97535.56;6219794;23;20000;-87
2021/12/09 05:44:33;;;;;;;21.60;14.45;;;;;;;1.76;82.77;97469.28;6194166;23;20446;-87
2021/12/09 05:47:05;;;;;;;22.50;15.55;;;;;;;2.35;83.11;97570.97;6219241;23;20023;-88
2021/12/09 05:49:38;;;;;;;21.50;15.43;;;;;;;2.39;82.77;97583.44;6220413;23;20015;-86
2021/12/09 05:52:05;;;;;;;22.80;14.68;;;;;;;2.18;82.31;97553.19;6196102;23;20454;-88
2021/12/09 05:54:31;;;;;;;21.08;14.52;;;;;;;2.42;82.84;97596.16;6222787;23;20057;-88
2021/12/09 05:56:58;;;;;;;23.17;14.73;;;;;;;2.40;82.61;97592.97;6224897;23;20042;-86
2021/12/09 05:59:26;;;;;;;22.17;14.90;;;;;;;2.42;82.70;97590.09;6222685;23;20008;-87
2021/12/09 06:01:52;;;;;;;23.67;16.95;;;;;;;2.33;82.75;97575.66;6246185;23;20002;-87
2021/12/09 06:04:17;;;;;;;20.50;14.48;;;;;;;2.24;82.70;97572.56;6246241;23;20003;-88
2021/12/09 06:06:43;;;;;;;23.13;15.25;;;;;;;2.31;82.98;97578.53;6218946;23;20008;-85
2021/12/09 06:09:10;;;;;;;24.40;16.00;;;;;;;2.40;83.14;97600.84;6222126;23;20001;-88
2021/12/09 06:11:37;;;;;;;22.20;16.52;;;;;;;2.26;82.99;97581.84;6198963;23;20099;-89
2021/12/09 06:14:05;;;;;;;19.70;15.15;;;;;;;2.39;82.74;97604.50;6223094;23;20018;-87
2021/12/09 06:16:32;;;;;;;24.30;15.90;;;;;;;2.42;82.67;97592.72;6225108;23;20016;-88
2021/12/09 06:18:58;;;;;;;25.38;16.15;;;;;;;2.22;82.51;97557.00;6223282;23;20435;-89
2021/12/09 06:21:27;;;;;;;23.98;15.90;;;;;;;2.18;83.17;97544.50;6223941;23;20010;-88
2021/12/09 06:23:53;;;;;;;22.27;13.68;;;;;;;2.42;83.09;97575.09;6198891;23;20015;-88
2021/12/09 06:26:20;;;;;;;22.40;14.82;;;;;;;2.41;82.77;97581.38;6221847;23;20008;-87
2021/12/09 06:28:46;;;;;;;23.50;15.18;;;;;;;1.67;83.00;97468.00;6222728;23;20015;-86
2021/12/09 06:31:12;;;;;;;21.10;15.07;;;;;;;2.43;83.07;97581.97;6197032;23;20008;-88
2021/12/09 06:33:38;;;;;;;22.10;13.93;;;;;;;1.89;82.75;97505.91;6247968;23;20000;-88
2021/12/09 06:36:03;;;;;;;22.33;14.98;;;;;;;1.74;82.42;97479.22;6221750;23;20296;-87
2021/12/09 06:38:30;;;;;;;21.85;14.88;;;;;;;2.44;83.07;97602.00;6222599;23;20007;-87
2021/12/09 06:40:55;;;;;;;20.85;14.32;;;;;;;2.39;82.85;97609.78;6220881;23;20367;-87
2021/12/09 06:43:22;;;;;;;22.02;14.80;;;;;;;2.11;82.74;97567.50;6222170;23;20003;-88
2021/12/09 06:45:48;;;;;;;23.40;13.88;;;;;;;2.46;82.87;97618.38;6197673;23;20095;-88
2021/12/09 06:48:14;;;;;;;23.63;15.05;;;;;;;2.26;82.91;97595.00;6194840;23;20008;-90
2021/12/09 06:50:41;;;;;;;18.20;14.27;;;;;;;1.53;83.18;97488.41;6196347;23;20062;-90
2021/12/09 06:53:12;;;;;;;20.70;14.75;;;;;;;2.08;82.71;97575.81;6172049;23;20098;-88
2021/12/09 06:55:38;;;;;;;25.40;15.73;;;;;;;1.99;82.90;97561.38;6222856;23;20008;-87
2021/12/09 06:58:04;;;;;;;21.98;15.10;;;;;;;2.48;83.15;97640.00;6249513;23;20057;-84
2021/12/09 07:00:31;;;;;;;20.83;14.40;;;;;;;2.50;83.09;97647.69;6222358;23;20060;-84
2021/12/09 07:02:57;;;;;;;22.35;15.88;;;;;;;2.49;83.11;97648.72;6248584;23;20096;-84
2021/12/09 07:05:24;;;;;;;26.35;15.18;;;;;;;2.25;83.11;97611.00;6220018;23;20004;-87
2021/12/09 07:07:50;;;;;;;22.80;14.95;;;;;;;2.50;83.31;97651.13;6243950;23;20003;-87
2021/12/09 07:10:17;;;;;;;25.00;15.70;;;;;;;2.36;82.85;97627.88;6218050;23;20011;-87
2021/12/09 07:12:43;;;;;;;19.65;14.15;;;;;;;2.46;82.96;97643.91;6218281;23;20024;-87
2021/12/09 07:15:12;;;;;;;20.90;14.65;;;;;;;2.46;83.24;97636.00;6191519;23;20023;-87
2021/12/09 07:17:38;;;;;;;22.77;16.05;;;;;;;2.52;82.68;97645.63;6243914;23;20007;-87
2021/12/09 07:20:07;;;;;;;21.48;15.63;;;;;;;2.27;82.82;97615.00;6218891;23;20004;-83
2021/12/09 07:22:33;;;;;;;24.27;15.88;;;;;;;2.53;83.18;97658.59;6197909;23;20514;-82
2021/12/09 07:25:00;;;;;;;21.75;15.65;;;;;;;2.53;83.21;97655.94;6197446;23;20027;-82
2021/12/09 07:27:25;;;;;;;22.55;15.90;;;;;;;2.38;82.82;97631.84;6196678;23;20034;-81
2021/12/09 07:29:50;;;;;;;21.33;15.32;;;;;;;2.46;83.03;97647.34;6195862;23;20436;-83
2021/12/09 07:32:16;;;;;;;25.58;15.02;;;;;;;2.48;83.21;97647.91;6222065;23;20023;-83
2021/12/09 07:34:41;;;;;;;24.65;16.20;;;;;;;2.54;83.26;97654.09;6222949;23;20004;-82
2021/12/09 07:37:07;;;;;;;23.10;15.55;;;;;;;2.45;82.93;97639.66;6222261;23;20008;-82
2021/12/09 07:39:34;;;;;;;30.92;16.00;;;;;;;2.18;82.96;97597.94;6221772;23;20000;-82
2021/12/09 07:42:01;;;;;;;24.23;17.40;;;;;;;2.39;83.04;97622.94;6247076;23;20426;-82
2021/12/09 07:44:31;;;;;;;25.70;16.67;;;;;;;2.48;83.11;97633.94;6221629;23;20385;-82
2021/12/09 07:46:58;;;;;;;24.80;16.15;;;;;;;2.55;83.04;97648.63;6195915;23;20004;-82
2021/12/09 07:49:25;;;;;;;25.23;16.95;;;;;;;2.48;83.00;97631.31;6220697;23;20004;-83
2021/12/09 07:51:51;;;;;;;25.25;16.42;;;;;;;2.56;83.27;97644.94;6220382;23;20092;-83
2021/12/09 07:54:19;;;;;;;25.60;16.58;;;;;;;2.57;83.46;97651.00;6243070;23;20004;-81
2021/12/09 07:56:45;;;;;;;27.00;16.05;;;;;;;2.54;82.91;97644.38;6246051;23;20000;-82
2021/12/09 07:59:11;;;;;;;26.55;17.55;;;;;;;2.55;83.08;97639.91;6216757;23;20016;-84
2021/12/09 08:01:38;;;;;;;24.70;17.25;;;;;;;2.57;83.56;97649.19;6217993;23;20012;-82
2021/12/09 08:04:05;;;;;;;21.10;15.38;;;;;;;2.47;83.44;97627.88;6218050;23;20020;-82
2021/12/09 08:06:32;;;;;;;22.90;16.20;;;;;;;2.52;83.71;97635.09;6243578;23;20006;-83
2021/12/09 08:08:59;;;;;;;25.80;16.80;;;;;;;2.39;83.08;97619.50;6218355;23;20019;-83
2021/12/09 08:11:24;;;;;;;26.40;16.55;;;;;;;2.59;83.13;97648.97;6218208;23;20014;-84
2021/12/09 08:13:49;;;;;;;25.02;16.75;;;;;;;2.61;83.58;97657.44;6218226;23;20407;-83
2021/12/09 08:16:16;;;;;;;26.10;17.42;;;;;;;2.59;83.39;97662.13;6218494;23;20011;-82
2021/12/09 08:18:55;;;;;;;25.00;16.52;;;;;;;2.59;83.20;97662.13;6217871;23;20015;-82
2021/12/09 08:21:26;;;;;;;27.40;15.95;;;;;;;2.59;83.18;97662.94;6195307;23;20382;-84
2021/12/09 08:23:53;;;;;;;27.58;16.92;;;;;;;2.50;83.45;97650.31;6192343;23;20087;-83
2021/12/09 08:26:21;;;;;;;26.50;17.63;;;;;;;2.48;83.89;97647.91;6193702;23;20091;-82
2021/12/09 08:28:47;;;;;;;28.27;18.02;;;;;;;2.61;83.76;97675.88;6244320;23;20475;-84
2021/12/09 08:31:13;;;;;;;29.75;20.98;;;;;;;2.63;83.88;97674.63;6193814;23;20004;-83
2021/12/09 08:33:38;;;;;;;31.83;20.85;;;;;;;2.56;83.71;97671.28;6244940;23;20004;-83
2021/12/09 08:36:04;;;;;;;30.35;19.08;;;;;;;2.62;83.49;97674.84;6246121;23;20004;-83
2021/12/09 08:38:30;;;;;;;30.73;20.23;;;;;;;2.44;83.85;97643.31;6219732;23;20334;-83
2021/12/09 08:40:56;;;;;;;26.83;18.60;;;;;;;2.68;83.62;97685.28;6195123;23;20078;-83
2021/12/09 08:43:22;;;;;;;30.05;20.67;;;;;;;2.70;83.46;97687.69;6220031;23;20036;-83
2021/12/09 08:45:50;;;;;;;26.90;19.08;;;;;;;2.60;83.81;97669.78;6244531;23;20012;-82
2021/12/09 08:48:16;;;;;;;26.95;18.95;;;;;;;2.72;83.92;97696.97;6195265;23;20031;-82
2021/12/09 08:50:44;;;;;;;27.27;18.52;;;;;;;2.76;83.58;97695.47;6246542;23;20008;-85
2021/12/09 08:53:14;;;;;;;28.83;18.08;;;;;;;2.78;83.79;97706.59;6193262;23;20449;-83
2021/12/09 08:55:40;;;;;;;31.52;18.40;;;;;;;2.81;83.35;97698.25;6219134;23;20007;-82
2021/12/09 08:58:07;;;;;;;28.17;19.10;;;;;;;2.84;83.73;97687.25;6220413;23;20343;-83
2021/12/09 09:00:34;;;;;;;27.10;17.83;;;;;;;2.83;83.88;97696.19;6247023;23;19996;-83
2021/12/09 09:03:01;;;;;;;31.80;19.88;;;;;;;2.87;83.65;97699.97;6246665;23;20000;-82
2021/12/09 09:05:28;;;;;;;27.45;18.70;;;;;;;2.86;83.96;97703.63;6245715;23;20057;-84
2021/12/09 09:07:54;;;;;;;27.95;17.98;;;;;;;2.80;83.56;97683.47;6196087;23;20553;-81
2021/12/09 09:10:25;;;;;;;35.25;20.38;;;;;;;2.69;83.75;97655.25;6244976;23;20004;-82
2021/12/09 09:12:54;;;;;;;35.20;19.35;;;;;;;2.75;83.66;97664.88;6248194;23;20012;-82
2021/12/09 09:15:26;;;;;;;34.53;19.40;;;;;;;2.95;83.53;97694.34;6197470;23;20012;-82
2021/12/09 09:17:51;;;;;;;28.65;18.85;;;;;;;3.00;83.50;97688.41;6243700;23;20019;-81
2021/12/09 09:20:19;;;;;;;30.08;19.52;;;;;;;2.88;83.79;97667.31;6194603;23;20407;-82
2021/12/09 09:22:46;;;;;;;35.38;20.17;;;;;;;2.90;83.90;97660.00;6247241;23;20004;-82
2021/12/09 09:25:19;;;;;;;28.73;18.70;;;;;;;2.84;83.44;97645.09;6194074;23;20351;-82
2021/12/09 09:27:46;;;;;;;29.90;18.98;;;;;;;2.97;83.28;97671.22;6219620;23;20032;-82
2021/12/09 09:30:14;;;;;;;30.90;19.20;;;;;;;3.09;83.63;97697.56;6195183;23;20012;-82
2021/12/09 09:32:41;;;;;;;26.42;18.65;;;;;;;2.93;83.75;97672.69;6218488;23;20015;-81
2021/12/09 09:35:09;;;;;;;28.02;19.58;;;;;;;3.13;83.45;97690.81;6247647;23;20004;-82
2021/12/09 09:37:34;;;;;;;27.92;18.38;;;;;;;3.16;83.42;97693.00;6221398;23;20008;-82
2021/12/09 09:40:00;;;;;;;28.98;17.50;;;;;;;3.12;83.46;97681.31;6221469;23;20316;-82
2021/12/09 09:42:54;;;;;;;31.02;18.70;;;;;;;3.23;83.34;97698.97;6221439;23;20011;-82
2021/12/09 09:45:18;;;;;;;29.38;17.95;;;;;;;3.09;83.04;97670.41;6225877;23;20660;-82
2021/12/09 09:47:47;;;;;;;31.48;17.30;;;;;;;3.22;83.12;97678.09;6218022;23;20040;-82
2021/12/09 09:50:13;;;;;;;33.22;19.83;;;;;;;2.98;83.10;97650.94;6243827;23;20008;-82
2021/12/09 09:52:40;;;;;;;29.15;17.75;;;;;;;3.29;82.97;97684.84;6218629;23;20004;-82
2021/12/09 09:55:08;;;;;;;30.67;16.50;;;;;;;3.31;82.95;97687.25;6220130;23;20008;-82
2021/12/09 09:57:34;;;;;;;27.75;16.63;;;;;;;3.34;83.04;97697.34;6220055;23;20030;-82
2021/12/09 10:00:17;;;;;;;30.45;17.23;;;;;;;3.32;83.14;97692.28;6223686;23;20419;-84
2021/12/09 10:02:43;;;;;;;27.13;16.25;;;;;;;3.36;83.17;97687.38;6199411;23;20004;-83
2021/12/09 10:05:09;;;;;;;25.17;16.70;;;;;;;3.39;82.86;97692.97;6222387;23;20004;-83
2021/12/09 10:07:35;;;;;;;25.35;15.35;;;;;;;3.39;83.04;97692.16;6221790;23;20010;-83
2021/12/09 10:10:07;;;;;;;25.67;14.88;;;;;;;3.43;82.72;97693.34;6249052;23;20070;-83
2021/12/09 10:12:33;;;;;;;25.15;15.02;;;;;;;3.32;82.86;97680.97;6248874;23;20008;-82
2021/12/09 10:14:58;;;;;;;26.13;13.73;;;;;;;3.48;82.45;97698.69;6246612;23;20026;-82
2021/12/09 10:17:27;;;;;;;27.42;14.23;;;;;;;3.48;82.48;97696.06;6218314;23;20058;-81
2021/12/09 10:19:56;;;;;;;27.25;15.32;;;;;;;3.47;82.45;97694.47;6220282;23;20008;-82
2021/12/09 10:22:24;;;;;;;22.30;13.82;;;;;;;3.51;82.38;97704.34;6220603;23;20332;-81
2021/12/09 10:24:53;;;;;;;23.70;12.85;;;;;;;3.53;82.49;97693.53;6245898;23;20095;-82
2021/12/09 10:27:28;;;;;;;26.70;15.13;;;;;;;3.54;82.49;97689.84;6220472;23;20008;-82
2021/12/09 10:30:00;;;;;;;25.20;15.45;;;;;;;3.40;82.55;97662.13;6221596;23;20447;-82
2021/12/09 10:32:32;;;;;;;25.20;14.85;;;;;;;3.48;82.20;97664.41;6244930;23;20011;-83
2021/12/09 10:35:18;;;;;;;29.45;14.73;;;;;;;3.57;81.82;97684.94;6220217;23;20031;-82
2021/12/09 10:37:46;;;;;;;32.92;15.82;;;;;;;3.57;82.20;97670.94;6196612;23;20016;-82
2021/12/09 10:40:20;;;;;;;23.13;15.15;;;;;;;3.55;82.55;97676.47;6247213;23;20003;-84
2021/12/09 10:42:52;;;;;;;27.10;14.02;;;;;;;3.57;82.15;97677.03;6246005;23;20400;-82
2021/12/09 10:45:23;;;;;;;27.08;15.45;;;;;;;3.53;82.25;97667.16;6220089;23;20032;-83
2021/12/09 10:48:00;;;;;;;29.13;15.45;;;;;;;3.58;82.49;97675.19;6245916;23;20075;-82
2021/12/09 10:55:47;;;;;;;;;;;;;;;3.59;82.16;97669.69;6244395;23;20458;-83
2021/12/09 10:58:16;;;;;;;27.13;15.47;;;;;;;3.60;82.22;97657.28;6245816;23;19903;-82
2021/12/09 11:00:47;;;;;;;35.45;14.85;;;;;;;3.60;82.60;97660.72;6217653;23;20034;-82
2021/12/09 11:03:14;;;;;;;26.58;14.68;;;;;;;3.64;82.21;97658.44;6216929;23;20008;-82
2021/12/09 11:05:54;;;;;;;24.67;14.90;;;;;;;3.54;82.09;97634.47;6217626;23;20081;-83
2021/12/09 11:08:29;;;;;;;27.20;14.88;;;;;;;3.52;82.02;97604.88;6245428;23;20065;-81
2021/12/09 11:11:06;;;;;;;17.77;11.48;;;;;;;3.76;81.83;97635.44;6219408;23;20005;-81
2021/12/09 11:13:53;;;;;;;22.88;13.50;;;;;;;3.75;81.39;97612.75;6244303;23;20012;-83
2021/12/09 11:16:29;;;;;;;24.58;13.77;;;;;;;3.80;81.90;97615.44;6219325;23;20004;-82
2021/12/09 11:19:06;;;;;;;21.23;13.07;;;;;;;3.90;81.45;97620.94;6246443;23;20027;-81
2021/12/09 11:21:37;;;;;;;20.63;13.60;;;;;;;3.97;81.52;97615.53;6220635;23;20015;-80
2021/12/09 11:24:18;;;;;;;24.00;12.95;;;;;;;3.87;81.17;97594.22;6250024;23;20015;-81
2021/12/09 11:27:00;;;;;;;20.67;12.13;;;;;;;3.99;81.27;97608.97;6219665;23;20000;-80
2021/12/09 11:29:36;;;;;;;22.85;12.82;;;;;;;4.08;80.92;97612.03;6201421;23;20008;-81
2021/12/09 11:32:16;;;;;;;18.48;11.15;;;;;;;4.15;81.41;97613.47;6221326;23;20140;-87
2021/12/09 11:34:51;;;;;;;17.70;11.30;;;;;;;4.17;80.92;97615.88;6244456;23;20000;-82
2021/12/09 11:37:38;;;;;;;17.80;10.57;;;;;;;4.18;80.78;97613.00;6243554;23;20043;-82